Flight Track Log - Related Links

Times and Time Zones

All times are in EDT time to prevent confusion due to time zone crossing. See the SWA303 flight status page for this flight to view local times or setup timezone preferences in your user account.

Time Position Orientation Groundspeed Altitude Reporting Facility
EDT Latitude Longitude Course Direction KTS MPH feet Rate Location/Type
Mon 02:22:54 PM 39.9167 -104.6667 84° East 187 215 6,700  Level Denver TRACON
Mon 02:23:54 PM 39.9667 -104.6167 37° Northeast 246 283 8,700 1,750 Climbing Denver TRACON
Mon 02:24:54 PM 40.0333 -104.5667 30° Northeast 284 327 10,200 2,450 Climbing Denver TRACON
Mon 02:27:05 PM 40.0175 -104.2886 94° East 384 442 16,500 2,736 Climbing Denver Center
Mon 02:28:00 PM 39.9250 -103.8931 84° East  Level Estimated
Mon 02:28:07 PM 39.9833 -104.1447 107° East 387 445 19,000  Level Denver Center
Mon 02:29:09 PM 39.9497 -104.0067 108° East 398 458 20,300 1,887 Climbing Denver Center
Mon 02:30:11 PM 39.9125 -103.8531 107° East 412 474 22,900 2,419 Climbing Denver Center
Mon 02:31:13 PM 39.8872 -103.7142 103° East 426 490 25,300 2,129 Climbing Denver Center
Mon 02:32:15 PM 39.9011 -103.5547 83° East 440 506 27,300 1,805 Climbing Denver Center
Mon 02:33:16 PM 39.9072 -103.4175 87° East 450 518 29,000 1,839 Climbing Denver Center
Mon 02:34:19 PM 39.9192 -103.1875 86° East 470 541 31,100 1,790 Climbing Denver Center
Mon 02:35:20 PM 39.9269 -103.0417 86° East 478 550 32,700 1,902 Climbing Denver Center
Mon 02:36:22 PM 39.9372 -102.8403 86° East 475 547 35,000 1,839 Climbing Denver Center
Mon 02:37:24 PM 39.9450 -102.6828 86° East 468 539 36,500 968 Climbing Denver Center
Mon 02:38:26 PM 39.9539 -102.4956 86° East 464 534 37,000 242 Climbing Denver Center
Mon 02:39:28 PM 39.9614 -102.3361 86° East 461 531 37,000  Level Denver Center
Mon 02:40:29 PM 39.9689 -102.1775 86° East 460 529 37,000 244 Level Denver Center
Mon 02:41:31 PM 39.9761 -101.9931 87° East 458 527 37,500 823 Climbing Denver Center
Mon 02:42:33 PM 39.9844 -101.8089 87° East 457 526 38,700 726 Climbing Denver Center
Mon 02:43:35 PM 39.9908 -101.6492 87° East 461 531 39,000 146 Climbing Denver Center
Mon 02:44:36 PM 39.9969 -101.4611 88° East 466 536 39,000  Level Denver Center
Mon 02:45:38 PM 40.0031 -101.3008 87° East 464 534 39,000  Level Denver Center
Mon 02:46:40 PM 40.0092 -101.1142 87° East 464 534 39,000  Level Denver Center
Mon 02:47:42 PM 40.0139 -100.9547 88° East 464 534 39,000  Level Denver Center
Mon 02:48:43 PM 40.0203 -100.7967 87° East 459 528 39,000  Level Denver Center
Mon 02:49:45 PM 40.0258 -100.6125 88° East 459 528 39,000  Level Denver Center
Mon 02:50:47 PM 40.0308 -100.4569 88° East 453 521 39,000  Level Denver Center
Mon 02:51:48 PM 40.0350 -100.2747 88° East 451 519 39,000  Level Denver Center
Mon 02:52:50 PM 40.0397 -100.1050 88° East 452 520 39,000  Level Denver Center
Mon 02:53:52 PM 40.0439 -99.9375 88° East 449 517 39,000  Level Denver Center
Mon 02:54:53 PM 40.0481 -99.7792 88° East 453 521 39,000  Level Denver Center
Mon 02:55:55 PM 40.0517 -99.6156 88° East 453 521 39,000  Level Denver Center
Mon 02:56:57 PM 40.0556 -99.4511 88° East 455 524 39,000  Level Denver Center
Mon 02:57:58 PM 40.0578 -99.2858 89° East 456 525 39,000  Level Denver Center
Mon 02:59:00 PM 40.0619 -99.0856 88° East 462 532 39,000  Level Denver Center
Mon 03:00:02 PM 40.0642 -98.9189 89° East 461 531 39,000  Level Denver Center
Mon 03:01:03 PM 40.0672 -98.7517 89° East 463 533 39,000  Level Denver Center
Mon 03:01:20 PM 40.0672 -98.7189 90° East 463 533 39,000  Level Minneapolis Center
Mon 03:02:21 PM 40.0694 -98.5506 89° East 465 535 39,000  Level Minneapolis Center
Mon 03:03:23 PM 40.0717 -98.3500 89° East 463 533 39,000  Level Minneapolis Center
Mon 03:04:24 PM 40.0739 -98.1814 89° East 464 534 39,000  Level Minneapolis Center
Mon 03:05:38 PM 40.0744 -98.0147 90° East 463 533 39,000  Level Minneapolis Center
Mon 03:06:40 PM 40.0764 -97.8161 89° East 458 527 39,000  Level Minneapolis Center
Mon 03:07:41 PM 40.0764 -97.6503 90° East 458 527 39,000  Level Minneapolis Center
Mon 03:08:43 PM 40.0775 -97.4864 89° East 455 524 39,000  Level Minneapolis Center
Mon 03:09:44 PM 40.0783 -97.2969 90° East 457 526 39,000  Level Minneapolis Center
Mon 03:10:46 PM 40.0781 -97.1317 90° East 457 526 39,000  Level Minneapolis Center
Mon 03:11:47 PM 40.0783 -96.9672 90° East 456 525 39,000  Level Minneapolis Center
Mon 03:12:49 PM 40.0775 -96.8017 90° East 458 527 39,000  Level Minneapolis Center
Mon 03:14:02 PM 40.0775 -96.6358 90° East 458 527 39,000  Level Minneapolis Center
Mon 03:15:04 PM 40.0761 -96.4375 90° East 458 527 39,000  Level Minneapolis Center
Mon 03:16:06 PM 40.0747 -96.2697 91° East 462 532 39,000  Level Minneapolis Center
Mon 03:17:07 PM 40.0731 -96.0692 91° East 462 532 39,000  Level Minneapolis Center
Mon 03:18:09 PM 40.0725 -95.9014 90° East 463 533 39,000  Level Minneapolis Center
Mon 03:19:10 PM 40.0719 -95.7364 90° East 461 531 39,000  Level Minneapolis Center
Mon 03:20:12 PM 40.0836 -95.5700 85° East 459 528 39,000  Level Minneapolis Center
Mon 03:21:13 PM 40.0936 -95.4042 85° East 460 529 39,000  Level Minneapolis Center
Mon 03:22:05 PM 40.1022 -95.2514 86° East 458 527 39,000  Level Kansas City Center
Mon 03:23:06 PM 40.1111 -95.0925 86° East 458 527 39,000  Level Kansas City Center
Mon 03:24:08 PM 40.1208 -94.9072 86° East 456 525 39,000  Level Kansas City Center
Mon 03:25:10 PM 40.1303 -94.7450 86° East 463 533 39,000  Level Kansas City Center
Mon 03:26:12 PM 40.1378 -94.5828 86° East 466 536 39,000  Level Kansas City Center
Mon 03:27:22 PM 40.1481 -94.3806 86° East 465 535 39,000  Level Minneapolis Center
Mon 03:28:16 PM 40.1553 -94.2333 86° East 464 534 39,000  Level Kansas City Center
Mon 03:29:18 PM 40.1622 -94.0461 87° East 468 539 39,000  Level Kansas City Center
Mon 03:30:19 PM 40.1681 -93.8794 87° East 466 536 39,000  Level Kansas City Center
Mon 03:31:21 PM 40.1764 -93.7122 86° East 464 534 39,000 339 Level Kansas City Center
Mon 03:32:23 PM 40.1833 -93.5456 87° East 463 533 39,700 871 Climbing Kansas City Center
Mon 03:33:25 PM 40.1908 -93.3769 87° East 467 537 40,800 629 Climbing Kansas City Center
Mon 03:34:27 PM 40.1972 -93.1783 88° East 461 531 41,000 97 Climbing Kansas City Center
Mon 03:35:29 PM 40.2050 -93.0208 86° East 461 531 41,000  Level Kansas City Center
Mon 03:36:31 PM 40.2119 -92.8342 87° East 459 528 41,000  Level Kansas City Center
Mon 03:37:32 PM 40.2178 -92.6736 87° East 461 531 41,000  Level Kansas City Center
Mon 03:38:34 PM 40.2253 -92.4906 87° East 456 525 41,000  Level Kansas City Center
Mon 03:39:36 PM 40.2306 -92.3300 87° East 462 532 41,000  Level Kansas City Center
Mon 03:40:38 PM 40.2353 -92.1647 88° East 462 532 41,000  Level Kansas City Center
Mon 03:41:40 PM 40.2394 -91.9994 88° East 460 529 41,000  Level Kansas City Center
Mon 03:42:42 PM 40.2442 -91.8014 88° East 458 527 41,000  Level Kansas City Center
Mon 03:43:44 PM 40.2492 -91.6344 88° East 462 532 41,000  Level Kansas City Center
Mon 03:44:46 PM 40.2528 -91.4656 88° East 466 536 41,000  Level Kansas City Center
Mon 03:45:48 PM 40.2567 -91.2975 88° East 467 537 41,000  Level Kansas City Center
Mon 03:46:50 PM 40.2603 -91.1289 88° East 468 539 41,000  Level Kansas City Center
Mon 03:47:52 PM 40.2639 -90.9347 89° East 470 541 41,000  Level Kansas City Center
Mon 03:48:13 PM 40.2664 -90.8667 87° East 471 542 41,000  Level Chicago Center
Mon 03:49:15 PM 40.2700 -90.6972 88° East 467 537 41,000  Level Chicago Center
Mon 03:50:17 PM 40.2722 -90.5297 89° East 463 533 41,000  Level Chicago Center
Mon 03:51:19 PM 40.2742 -90.3633 89° East 461 531 41,000  Level Chicago Center
Mon 03:52:21 PM 40.2769 -90.1978 89° East 459 528 41,000  Level Chicago Center
Mon 03:53:23 PM 40.2786 -89.9983 89° East 460 529 41,000  Level Chicago Center
Mon 03:54:25 PM 40.2803 -89.8344 89° East 457 526 41,000  Level Chicago Center
Mon 03:55:27 PM 40.2806 -89.6675 90° East 462 532 41,000  Level Chicago Center
Mon 03:56:29 PM 40.2819 -89.5031 89° East 458 527 41,000  Level Chicago Center
Mon 03:57:31 PM 40.2839 -89.3378 89° East 458 527 41,000  Level Chicago Center
Mon 03:58:33 PM 40.2842 -89.1372 90° East 461 531 41,000  Level Chicago Center
Mon 03:59:36 PM 40.2850 -88.9694 90° East 461 531 41,000  Level Chicago Center
Mon 04:00:38 PM 40.2844 -88.8003 90° East 466 536 41,000  Level Chicago Center
Mon 04:01:40 PM 40.2853 -88.6314 90° East 464 534 41,000 -387 Level Chicago Center
Mon 04:02:42 PM 40.2858 -88.4356 90° East 465 535 40,200 -871 Descending Chicago Center
Mon 04:03:44 PM 40.2858 -88.2700 90° East 459 528 39,200 -581 Descending Chicago Center
Mon 04:04:46 PM 40.2847 -88.1033 90° East 462 532 39,000 -97 Descending Chicago Center
Mon 04:05:48 PM 40.2839 -87.9364 90° East 462 532 39,000  Level Chicago Center
Mon 04:06:44 PM 40.2817 -87.7633 91° East 464 534 39,000  Level Indianapolis Center
Mon 04:07:52 PM 40.2811 -87.5661 90° East 466 536 39,000  Level Chicago Center
Mon 04:08:54 PM 40.2792 -87.3931 91° East 463 533 39,000  Level Chicago Center
Mon 04:09:56 PM 40.2775 -87.2206 91° East 468 539 39,000  Level Chicago Center
Mon 04:10:59 PM 40.2747 -87.0494 91° East 469 540 39,000  Level Chicago Center
Mon 04:12:00 PM 40.2728 -86.8775 91° East 469 540 39,000  Level Chicago Center
Mon 04:13:02 PM 40.2694 -86.7058 91° East 468 539 39,000  Level Chicago Center
Mon 04:14:04 PM 40.2664 -86.5344 91° East 466 536 39,000  Level Chicago Center
Mon 04:15:06 PM 40.2628 -86.3631 92° East 466 536 39,000  Level Chicago Center
Mon 04:16:08 PM 40.2581 -86.1628 92° East 467 537 39,000  Level Chicago Center
Mon 04:17:11 PM 40.2542 -85.9925 92° East 466 536 39,000  Level Chicago Center
Mon 04:18:13 PM 40.2503 -85.8197 92° East 470 541 39,000  Level Chicago Center
Mon 04:19:15 PM 40.2464 -85.6492 92° East 468 539 39,000  Level Chicago Center
Mon 04:20:17 PM 40.2419 -85.4781 92° East 468 539 39,000  Level Chicago Center
Mon 04:21:11 PM 40.2356 -85.3353 93° East 465 535 39,000  Level Indianapolis Center
Mon 04:22:13 PM 40.2317 -85.1647 92° East 466 536 39,000  Level Indianapolis Center
Mon 04:23:15 PM 40.2253 -84.9669 92° East 464 534 39,000  Level Indianapolis Center
Mon 04:24:17 PM 40.2197 -84.7944 92° East 464 534 39,000  Level Indianapolis Center
Mon 04:25:19 PM 40.2139 -84.6275 93° East 457 526 39,000  Level Indianapolis Center
Mon 04:26:21 PM 40.2081 -84.4608 93° East 454 522 39,000  Level Indianapolis Center
Mon 04:27:23 PM 40.2017 -84.2953 93° East 451 519 39,000  Level Indianapolis Center
Mon 04:28:25 PM 40.1953 -84.1314 93° East 449 517 39,000  Level Indianapolis Center
Mon 04:29:26 PM 40.1886 -83.9658 93° East 449 517 39,000  Level Indianapolis Center
Mon 04:30:28 PM 40.1808 -83.7983 93° East 454 522 39,000  Level Indianapolis Center
Mon 04:31:30 PM 40.1753 -83.6317 92° East 452 520 39,000  Level Indianapolis Center
Mon 04:32:32 PM 40.1672 -83.4636 94° East 455 524 39,000  Level Indianapolis Center
Mon 04:33:34 PM 40.1583 -83.2664 93° East 458 527 39,000  Level Indianapolis Center
Mon 04:34:36 PM 40.1497 -83.0986 94° East 457 526 39,000  Level Indianapolis Center
Mon 04:35:38 PM 40.1411 -82.9303 94° East 458 527 39,000  Level Indianapolis Center
Mon 04:36:40 PM 40.1331 -82.7611 94° East 460 529 39,000  Level Indianapolis Center
Mon 04:37:42 PM 40.1247 -82.5942 94° East 457 526 39,000  Level Indianapolis Center
Mon 04:38:44 PM 40.1153 -82.4253 94° East 462 532 39,000  Level Indianapolis Center
Mon 04:39:46 PM 40.1058 -82.2572 94° East 460 529 39,000  Level Indianapolis Center
Mon 04:40:48 PM 40.0964 -82.0900 94° East 460 529 39,000  Level Indianapolis Center
Mon 04:41:50 PM 40.0867 -81.9217 94° East 460 529 39,000  Level Indianapolis Center
Mon 04:42:52 PM 40.0756 -81.7414 95° East 455 524 39,000  Level Indianapolis Center
Mon 04:43:54 PM 40.0658 -81.5753 94° East 457 526 39,000  Level Indianapolis Center
Mon 04:44:56 PM 40.0553 -81.4089 95° East 457 526 39,000  Level Indianapolis Center
Mon 04:45:58 PM 40.0450 -81.2436 95° East 455 524 39,000  Level Indianapolis Center
Mon 04:46:46 PM 40.0369 -81.0847 94° East 457 526 39,000  Level Cleveland Center
Mon 04:47:46 PM 40.0269 -80.9247 95° East 457 526 39,000 -250 Level Cleveland Center
Mon 04:48:46 PM 39.9961 -80.7700 105° East 451 519 38,500 -700 Descending Cleveland Center
Mon 04:49:46 PM 39.9294 -80.6264 121° Southeast 444 511 37,600 -950 Descending Cleveland Center
Mon 04:50:46 PM 39.8628 -80.4858 122° Southeast 449 517 36,600 -950 Descending Cleveland Center
Mon 04:51:46 PM 39.7939 -80.3453 123° Southeast 456 525 35,700 -950 Descending Cleveland Center
Mon 04:52:46 PM 39.7289 -80.2078 122° Southeast 461 531 34,700 -950 Descending Cleveland Center
Mon 04:53:46 PM 39.6594 -80.0681 123° Southeast 456 525 33,800 -905 Descending Cleveland Center
Mon 04:54:52 PM 39.5919 -79.9272 122° Southeast 460 529 32,800 -1,465 Descending Washington Center
Mon 04:55:53 PM 39.5431 -79.7764 113° Southeast 460 529 30,700 -2,231 Descending Washington Center
Mon 04:56:53 PM 39.5150 -79.6214 103° East 445 512 28,300 -1,866 Descending Washington Center
Mon 04:57:52 PM 39.4889 -79.4694 103° East 434 499 27,000 -1,160 Descending Washington Center
Mon 04:58:52 PM 39.4622 -79.3200 103° East 422 486 26,000 -1,438 Descending Washington Center
Mon 04:59:53 PM 39.4356 -79.1736 103° East 422 486 24,100 -2,331 Descending Washington Center
Mon 05:00:53 PM 39.4103 -79.0300 103° East 417 480 21,300 -2,579 Descending Washington Center
Mon 05:01:54 PM 39.3831 -78.8889 104° East 417 480 18,900 -2,479 Descending Washington Center
Mon 05:02:54 PM 39.3575 -78.7536 104° East 405 466 16,300 -2,390 Descending Washington Center
Mon 05:03:52 PM 39.3339 -78.6211 103° East 388 447 14,200 -2,067 Descending Washington Center
Mon 05:04:53 PM 39.3119 -78.4994 103° East 364 419 12,200 -1,610 Descending Washington Center
Mon 05:05:55 PM 39.2897 -78.3833 104° East 347 399 10,900 -807 Descending Washington Center
Mon 05:06:52 PM 39.2500 -78.2906 119° Southeast 316 364 10,600 -915 Descending Washington Center
Mon 05:07:53 PM 39.2483 -78.1778 91° East 291 335 9,100 -1,438 Descending Washington Center
Mon 05:08:53 PM 39.2506 -78.0761 88° East 276 318 7,700 -1,412 Descending Washington Center
Mon 05:09:52 PM 39.2419 -77.9767 96° East 276 318 6,300 -1,361 Descending Washington Center
Mon 05:10:52 PM 39.2292 -77.8825 100° East 271 312 5,000 -645 Descending Washington Center
Mon 05:11:53 PM 39.2186 -77.7911 98° East 271 312 5,000 -492 Level Washington Center
Mon 05:12:54 PM 39.2033 -77.6994 102° East 261 300 4,000 -496 Descending Washington Center
Mon 05:13:54 PM 39.1944 -77.6108 97° East 256 295 4,000 -90 Level Washington Center
Mon 05:15:07 PM 39.1833 -77.5000 97° East 228 262 3,800 -271 Descending Potomac TRACON
Mon 05:16:07 PM 39.1333 -77.4667 153° Southeast 174 200 3,400 -700 Descending Potomac TRACON
Mon 05:17:07 PM 39.1000 -77.4500 159° South 164 189 2,400 -800 Descending Potomac TRACON
Mon 05:18:07 PM 39.0500 -77.4667 195° South 161 185 1,800 -650 Descending Potomac TRACON
Mon 05:19:07 PM 39.0167 -77.4667 180° South 128 147 1,100 -700 Descending Potomac TRACON
Mon 05:21:00 PM 38.9474 -77.4599 165° South  Level Estimated
Mon 05:28:00 PM 38.9474 -77.4599 165° South  Level Estimated
Mon 05:29:00 PM 38.9474 -77.4599 165° South  Level Estimated

Login

Don't have an account? Register now (free) for customized features, flight alerts, and more!